CMA CGM La Boussole — A8FZ6 — position and weather

sailwx.info

Track history (hours):
 
Tides and Currents Weather Stations Pressure Air Temp Water Temp Dewpoint Dewpoint Depression Visibility Wind Speed Wind Dir Waves Ship Positions

CMA CGM La Boussole

Last reported at 2014-Jun-30 17:33 UTC. Time now 2014-Jul-29 02:39 UTC.
Position N 36°00' W 005°23'.
Warning: this ship's position is 28 days out of date.

Length 210.1 m; beam 30.2 m; draft 11.5 m.

Type: Ship (hazmat cat D). MMSI: 636090821.

Date/timePositionNaut miles runAvg speedWind from/ knotsBaromVisibWave heightAir tempDewpointWater temp
2014-Jun-30 17:33N 36°00' W 005°23'22614.8
2014-Jun-30 02:20N 37°17' W 000°58'1316.1
2014-Jun-30 01:32N 37°26' W 000°47'1616.1
2014-Jun-30 00:33N 37°36' W 000°32'1615.9
2014-Jun-29 23:33N 37°50' W 000°21'2315.8
2014-Jun-29 22:04N 38°09' W 000°05'4913.3
2014-Jun-29 18:23N 38°56' E 000°13'52 2.1
2014-Jun-28 18:18N 39°44' E 000°39'2615.1
2014-Jun-28 16:33N 40°02' E 001°05'1515.4
2014-Jun-28 15:33N 40°14' E 001°16'1515.5
2014-Jun-28 14:33N 40°27' E 001°27'1616.1
2014-Jun-28 13:33N 40°41' E 001°39'1615.8
2014-Jun-28 12:33N 40°54' E 001°50'1615.7
2014-Jun-28 11:33N 41°07' E 002°02'1412.9
2014-Jun-28 10:27N 41°20' E 002°10'1 0.7
2014-Jun-28 08:33N 41°21' E 002°10'0 0.0
2014-Jun-28 05:08N 41°21' E 002°10'0 0.0
2014-Jun-28 04:31N 41°21' E 002°10'0 0.0
2014-Jun-28 03:25N 41°21' E 002°10'0 0.0
2014-Jun-28 02:30N 41°21' E 002°10'0 0.0
2014-Jun-28 01:27N 41°21' E 002°10'0 0.0
2014-Jun-28 00:30N 41°21' E 002°10'0 0.0
2014-Jun-27 23:17N 41°21' E 002°10'0 0.0
2014-Jun-27 22:33N 41°21' E 002°10'5 5.3
2014-Jun-27 21:34N 41°17' E 002°15'1515.0
2014-Jun-27 20:33N 41°22' E 002°34'1717.4
2014-Jun-27 19:33N 41°29' E 002°55'1817.8
2014-Jun-27 18:33N 41°41' E 003°13'1616.1
2014-Jun-27 17:33N 41°53' E 003°27'1818.0
2014-Jun-27 16:33N 42°07' E 003°43'1717.2
2014-Jun-27 15:34N 42°19' E 003°58'1616.4
2014-Jun-27 14:33N 42°32' E 004°13'1817.6
2014-Jun-27 13:33N 42°45' E 004°29'1818.2
2014-Jun-27 12:34N 42°59' E 004°45'1616.3
2014-Jun-27 11:33N 43°11' E 004°60'1211.6
2014-Jun-27 10:32N 43°23' E 004°56'0 0.1
2014-Jun-27 09:32N 43°23' E 004°56'0 0.0
2014-Jun-27 08:28N 43°23' E 004°56'0 0.0
2014-Jun-27 07:31N 43°23' E 004°56'0 0.0
2014-Jun-27 06:33N 43°23' E 004°56'0 0.0
2014-Jun-27 05:33N 43°23' E 004°56'0 0.0
2014-Jun-27 04:33N 43°23' E 004°56'0 0.0
2014-Jun-27 03:32N 43°23' E 004°56'0 0.0
2014-Jun-27 02:32N 43°23' E 004°56'0 0.0
2014-Jun-27 01:31N 43°23' E 004°56'0 0.0
2014-Jun-27 00:31N 43°23' E 004°56'0 0.0
2014-Jun-26 23:33N 43°23' E 004°56'0 0.0
2014-Jun-26 22:33N 43°23' E 004°56'4 3.7
2014-Jun-26 21:33N 43°20' E 004°59'1212.2
2014-Jun-26 20:33N 43°10' E 005°08'1716.7
2014-Jun-26 19:33N 43°02' E 005°29'1716.6
2014-Jun-26 18:34N 42°55' E 005°49'1515.4
2014-Jun-26 17:33N 42°53' E 006°10'1717.3
2014-Jun-26 16:34N 42°56' E 006°33'1717.3
2014-Jun-26 15:33N 43°05' E 006°53'1818.3
2014-Jun-26 14:33N 43°16' E 007°13'6519.3
2014-Jun-26 11:12N 43°56' E 008°24'1218.9
2014-Jun-26 10:33N 44°05' E 008°36'1918.7
2014-Jun-26 09:33N 44°18' E 008°54'6 5.2
2014-Jun-26 08:22N 44°24' E 008°54'0 0.0
2014-Jun-26 07:31N 44°24' E 008°54'0 0.0
2014-Jun-26 06:28N 44°24' E 008°54'0 0.0
2014-Jun-26 05:33N 44°24' E 008°54'0 0.0
2014-Jun-26 04:33N 44°24' E 008°54'0 0.0
2014-Jun-26 03:32N 44°24' E 008°54'0 0.0
2014-Jun-26 02:32N 44°24' E 008°54'0 0.0
2014-Jun-26 01:32N 44°24' E 008°54'0 0.0
2014-Jun-26 00:25N 44°24' E 008°54'0 0.0
2014-Jun-25 23:31N 44°24' E 008°54'0 0.0
2014-Jun-25 22:30N 44°24' E 008°54'0 0.0
2014-Jun-25 21:30N 44°24' E 008°54'0 0.0
2014-Jun-25 20:29N 44°24' E 008°54'0 0.0
2014-Jun-25 19:29N 44°24' E 008°54'0 0.0
2014-Jun-25 18:28N 44°24' E 008°54'0 0.0
2014-Jun-25 17:28N 44°24' E 008°54'0 0.0
2014-Jun-25 16:28N 44°24' E 008°54'0 0.0
2014-Jun-25 15:33N 44°24' E 008°54'0 0.0
2014-Jun-25 14:33N 44°24' E 008°54'0 0.0
2014-Jun-25 13:32N 44°24' E 008°54'0 0.0
2014-Jun-25 12:32N 44°24' E 008°54'0 0.0
2014-Jun-25 11:31N 44°24' E 008°54'0 0.0
2014-Jun-25 07:33N 44°24' E 008°54'0 0.0
2014-Jun-25 06:29N 44°24' E 008°54'0 0.0
2014-Jun-25 05:32N 44°24' E 008°54'0 0.0
2014-Jun-25 04:31N 44°24' E 008°54'0 0.0
2014-Jun-25 03:28N 44°24' E 008°54'0 0.0
2014-Jun-25 02:31N 44°24' E 008°54'0 0.0
2014-Jun-25 01:30N 44°24' E 008°54'0 0.0
2014-Jun-25 00:33N 44°24' E 008°54'0 0.0
2014-Jun-24 23:32N 44°24' E 008°54'0 0.0
2014-Jun-24 22:32N 44°24' E 008°54'0 0.0
2014-Jun-24 21:28N 44°24' E 008°54'0 0.0
2014-Jun-24 20:31N 44°24' E 008°54'0 0.0
2014-Jun-24 19:31N 44°24' E 008°54'0 0.0
2014-Jun-24 18:33N 44°24' E 008°54'0 0.0
2014-Jun-24 17:34N 44°24' E 008°54'3 3.3
2014-Jun-24 16:33N 44°22' E 008°58'1413.6
2014-Jun-24 15:33N 44°11' E 009°09'1919.5
2014-Jun-24 14:33N 43°56' E 009°26'1919.1
2014-Jun-24 13:33N 43°42' E 009°44'1918.9
2014-Jun-24 12:33N 43°30' E 010°05'1010.4
2014-Jun-24 11:33N 43°34' E 010°18'1 0.6
2014-Jun-24 10:32N 43°34' E 010°18'0 0.0
2014-Jun-24 09:32N 43°34' E 010°18'0 0.0
2014-Jun-24 08:28N 43°34' E 010°18'0 0.0
2014-Jun-24 07:31N 43°34' E 010°18'0 0.0
2014-Jun-24 06:30N 43°34' E 010°18'0 0.0
2014-Jun-24 05:33N 43°34' E 010°18'0 0.0
2014-Jun-24 04:33N 43°34' E 010°18'0 0.0
2014-Jun-24 03:29N 43°34' E 010°18'0 0.0
2014-Jun-24 02:32N 43°34' E 010°18'0 0.0
2014-Jun-24 01:31N 43°34' E 010°18'0 0.0
2014-Jun-24 00:31N 43°34' E 010°18'0 0.0
2014-Jun-23 23:33N 43°34' E 010°18'0 0.0
2014-Jun-23 22:33N 43°34' E 010°18'0 0.0
2014-Jun-23 21:29N 43°34' E 010°18'0 0.0
2014-Jun-23 20:32N 43°34' E 010°18'0 0.0
2014-Jun-23 19:29N 43°34' E 010°18'0 0.0
2014-Jun-23 18:31N 43°34' E 010°18'0 0.0
2014-Jun-23 17:31N 43°34' E 010°18'0 0.0
2014-Jun-23 16:33N 43°34' E 010°18'0 0.0
2014-Jun-23 15:33N 43°34' E 010°18'0 0.0
2014-Jun-23 14:29N 43°34' E 010°18'0 0.0
2014-Jun-23 12:32N 43°34' E 010°18'0 0.0
2014-Jun-23 11:31N 43°34' E 010°18'1 0.6
2014-Jun-23 10:33N 43°34' E 010°18'7 6.8
2014-Jun-23 09:33N 43°29' E 010°12'1514.8
2014-Jun-23 08:33N 43°19' E 009°57'1616.0
2014-Jun-23 07:33N 43°17' E 009°35'1615.6
2014-Jun-23 06:33N 43°13' E 009°14'1616.3
2014-Jun-23 05:33N 43°04' E 008°56'1716.6
2014-Jun-23 04:33N 42°55' E 008°37'1616.3
2014-Jun-23 03:33N 42°46' E 008°18'1616.3
2014-Jun-23 02:33N 42°37' E 008°00'1616.2
2014-Jun-23 01:33N 42°28' E 007°42'1616.1
2014-Jun-23 00:33N 42°19' E 007°23'1616.0
2014-Jun-22 23:33N 42°10' E 007°05'1615.9
2014-Jun-22 22:33N 42°02' E 006°47'1615.7
2014-Jun-22 21:33N 41°53' E 006°29'1515.4
2014-Jun-22 20:33N 41°44' E 006°13'1414.2
2014-Jun-22 19:33N 41°37' E 005°57'1313.3
2014-Jun-22 18:33N 41°29' E 005°42'1313.3
2014-Jun-22 17:33N 41°22' E 005°27'1413.7
2014-Jun-22 16:33N 41°14' E 005°12'1714.4
2014-Jun-22 15:23N 41°05' E 004°53'1514.0
2014-Jun-22 14:16N 40°56' E 004°36'1114.6
2014-Jun-22 13:32N 40°50' E 004°24'1414.0
2014-Jun-22 12:31N 40°43' E 004°08'1614.3
2014-Jun-22 11:23N 40°33' E 003°51'1214.4
2014-Jun-22 10:31N 40°27' E 003°37'1514.0
2014-Jun-22 09:28N 40°19' E 003°21'1313.6
2014-Jun-22 08:31N 40°11' E 003°07'1414.3
2014-Jun-22 07:33N 40°03' E 002°53'1817.8
2014-Jun-22 06:33N 39°52' E 002°34'1817.0
2014-Jun-22 05:28N 39°42' E 002°14'1516.4
2014-Jun-22 04:33N 39°33' E 001°58'1616.3
2014-Jun-22 03:33N 39°23' E 001°42'1816.2
2014-Jun-22 02:28N 39°13' E 001°23'3316.6
2014-Jun-22 00:27N 38°51' E 000°50'4716.2
2014-Jun-21 21:32N 38°15' E 000°12'1515.6
2014-Jun-21 20:33N 38°03' E 000°00'2316.3
2014-Jun-21 19:09N 37°45' W 000°18'  
Track history (hours):
 
Tides and Currents Weather Stations Pressure Air Temp Water Temp Dewpoint Dewpoint Depression Visibility Wind Speed Wind Dir Waves Ship Positions

CMA CGM La Boussole

Last reported at 2014-Jun-30 17:33 UTC. Time now 2014-Jul-29 02:39 UTC.
Position N 36°00' W 005°23'.
Warning: this ship's position is 28 days out of date.

Length 210.1 m; beam 30.2 m; draft 11.5 m.

Type: Ship (hazmat cat D). MMSI: 636090821.

Date/timePositionNaut miles runAvg speedWind from/ knotsBaromVisibWave heightAir tempDewpointWater temp
2014-Jun-30 17:33N 36°00' W 005°23'22614.8
2014-Jun-30 02:20N 37°17' W 000°58'1316.1
2014-Jun-30 01:32N 37°26' W 000°47'1616.1
2014-Jun-30 00:33N 37°36' W 000°32'1615.9
2014-Jun-29 23:33N 37°50' W 000°21'2315.8
2014-Jun-29 22:04N 38°09' W 000°05'4913.3
2014-Jun-29 18:23N 38°56' E 000°13'52 2.1
2014-Jun-28 18:18N 39°44' E 000°39'2615.1
2014-Jun-28 16:33N 40°02' E 001°05'1515.4
2014-Jun-28 15:33N 40°14' E 001°16'1515.5
2014-Jun-28 14:33N 40°27' E 001°27'1616.1
2014-Jun-28 13:33N 40°41' E 001°39'1615.8
2014-Jun-28 12:33N 40°54' E 001°50'1615.7
2014-Jun-28 11:33N 41°07' E 002°02'1412.9
2014-Jun-28 10:27N 41°20' E 002°10'1 0.7
2014-Jun-28 08:33N 41°21' E 002°10'0 0.0
2014-Jun-28 05:08N 41°21' E 002°10'0 0.0
2014-Jun-28 04:31N 41°21' E 002°10'0 0.0
2014-Jun-28 03:25N 41°21' E 002°10'0 0.0
2014-Jun-28 02:30N 41°21' E 002°10'0 0.0
2014-Jun-28 01:27N 41°21' E 002°10'0 0.0
2014-Jun-28 00:30N 41°21' E 002°10'0 0.0
2014-Jun-27 23:17N 41°21' E 002°10'0 0.0
2014-Jun-27 22:33N 41°21' E 002°10'5 5.3
2014-Jun-27 21:34N 41°17' E 002°15'1515.0
2014-Jun-27 20:33N 41°22' E 002°34'1717.4
2014-Jun-27 19:33N 41°29' E 002°55'1817.8
2014-Jun-27 18:33N 41°41' E 003°13'1616.1
2014-Jun-27 17:33N 41°53' E 003°27'1818.0
2014-Jun-27 16:33N 42°07' E 003°43'1717.2
2014-Jun-27 15:34N 42°19' E 003°58'1616.4
2014-Jun-27 14:33N 42°32' E 004°13'1817.6
2014-Jun-27 13:33N 42°45' E 004°29'1818.2
2014-Jun-27 12:34N 42°59' E 004°45'1616.3
2014-Jun-27 11:33N 43°11' E 004°60'1211.6
2014-Jun-27 10:32N 43°23' E 004°56'0 0.1
2014-Jun-27 09:32N 43°23' E 004°56'0 0.0
2014-Jun-27 08:28N 43°23' E 004°56'0 0.0
2014-Jun-27 07:31N 43°23' E 004°56'0 0.0
2014-Jun-27 06:33N 43°23' E 004°56'0 0.0
2014-Jun-27 05:33N 43°23' E 004°56'0 0.0
2014-Jun-27 04:33N 43°23' E 004°56'0 0.0
2014-Jun-27 03:32N 43°23' E 004°56'0 0.0
2014-Jun-27 02:32N 43°23' E 004°56'0 0.0
2014-Jun-27 01:31N 43°23' E 004°56'0 0.0
2014-Jun-27 00:31N 43°23' E 004°56'0 0.0
2014-Jun-26 23:33N 43°23' E 004°56'0 0.0
2014-Jun-26 22:33N 43°23' E 004°56'4 3.7
2014-Jun-26 21:33N 43°20' E 004°59'1212.2
2014-Jun-26 20:33N 43°10' E 005°08'1716.7
2014-Jun-26 19:33N 43°02' E 005°29'1716.6
2014-Jun-26 18:34N 42°55' E 005°49'1515.4
2014-Jun-26 17:33N 42°53' E 006°10'1717.3
2014-Jun-26 16:34N 42°56' E 006°33'1717.3
2014-Jun-26 15:33N 43°05' E 006°53'1818.3
2014-Jun-26 14:33N 43°16' E 007°13'6519.3
2014-Jun-26 11:12N 43°56' E 008°24'1218.9
2014-Jun-26 10:33N 44°05' E 008°36'1918.7
2014-Jun-26 09:33N 44°18' E 008°54'6 5.2
2014-Jun-26 08:22N 44°24' E 008°54'0 0.0
2014-Jun-26 07:31N 44°24' E 008°54'0 0.0
2014-Jun-26 06:28N 44°24' E 008°54'0 0.0
2014-Jun-26 05:33N 44°24' E 008°54'0 0.0
2014-Jun-26 04:33N 44°24' E 008°54'0 0.0
2014-Jun-26 03:32N 44°24' E 008°54'0 0.0
2014-Jun-26 02:32N 44°24' E 008°54'0 0.0
2014-Jun-26 01:32N 44°24' E 008°54'0 0.0
2014-Jun-26 00:25N 44°24' E 008°54'0 0.0
2014-Jun-25 23:31N 44°24' E 008°54'0 0.0
2014-Jun-25 22:30N 44°24' E 008°54'0 0.0
2014-Jun-25 21:30N 44°24' E 008°54'0 0.0
2014-Jun-25 20:29N 44°24' E 008°54'0 0.0
2014-Jun-25 19:29N 44°24' E 008°54'0 0.0
2014-Jun-25 18:28N 44°24' E 008°54'0 0.0
2014-Jun-25 17:28N 44°24' E 008°54'0 0.0
2014-Jun-25 16:28N 44°24' E 008°54'0 0.0
2014-Jun-25 15:33N 44°24' E 008°54'0 0.0
2014-Jun-25 14:33N 44°24' E 008°54'0 0.0
2014-Jun-25 13:32N 44°24' E 008°54'0 0.0
2014-Jun-25 12:32N 44°24' E 008°54'0 0.0
2014-Jun-25 11:31N 44°24' E 008°54'0 0.0
2014-Jun-25 07:33N 44°24' E 008°54'0 0.0
2014-Jun-25 06:29N 44°24' E 008°54'0 0.0
2014-Jun-25 05:32N 44°24' E 008°54'0 0.0
2014-Jun-25 04:31N 44°24' E 008°54'0 0.0
2014-Jun-25 03:28N 44°24' E 008°54'0 0.0
2014-Jun-25 02:31N 44°24' E 008°54'0 0.0
2014-Jun-25 01:30N 44°24' E 008°54'0 0.0
2014-Jun-25 00:33N 44°24' E 008°54'0 0.0
2014-Jun-24 23:32N 44°24' E 008°54'0 0.0
2014-Jun-24 22:32N 44°24' E 008°54'0 0.0
2014-Jun-24 21:28N 44°24' E 008°54'0 0.0
2014-Jun-24 20:31N 44°24' E 008°54'0 0.0
2014-Jun-24 19:31N 44°24' E 008°54'0 0.0
2014-Jun-24 18:33N 44°24' E 008°54'0 0.0
2014-Jun-24 17:34N 44°24' E 008°54'3 3.3
2014-Jun-24 16:33N 44°22' E 008°58'1413.6
2014-Jun-24 15:33N 44°11' E 009°09'1919.5
2014-Jun-24 14:33N 43°56' E 009°26'1919.1
2014-Jun-24 13:33N 43°42' E 009°44'1918.9
2014-Jun-24 12:33N 43°30' E 010°05'1010.4
2014-Jun-24 11:33N 43°34' E 010°18'1 0.6
2014-Jun-24 10:32N 43°34' E 010°18'0 0.0
2014-Jun-24 09:32N 43°34' E 010°18'0 0.0
2014-Jun-24 08:28N 43°34' E 010°18'0 0.0
2014-Jun-24 07:31N 43°34' E 010°18'0 0.0
2014-Jun-24 06:30N 43°34' E 010°18'0 0.0
2014-Jun-24 05:33N 43°34' E 010°18'0 0.0
2014-Jun-24 04:33N 43°34' E 010°18'0 0.0
2014-Jun-24 03:29N 43°34' E 010°18'0 0.0
2014-Jun-24 02:32N 43°34' E 010°18'0 0.0
2014-Jun-24 01:31N 43°34' E 010°18'0 0.0
2014-Jun-24 00:31N 43°34' E 010°18'0 0.0
2014-Jun-23 23:33N 43°34' E 010°18'0 0.0
2014-Jun-23 22:33N 43°34' E 010°18'0 0.0
2014-Jun-23 21:29N 43°34' E 010°18'0 0.0
2014-Jun-23 20:32N 43°34' E 010°18'0 0.0
2014-Jun-23 19:29N 43°34' E 010°18'0 0.0
2014-Jun-23 18:31N 43°34' E 010°18'0 0.0
2014-Jun-23 17:31N 43°34' E 010°18'0 0.0
2014-Jun-23 16:33N 43°34' E 010°18'0 0.0
2014-Jun-23 15:33N 43°34' E 010°18'0 0.0
2014-Jun-23 14:29N 43°34' E 010°18'0 0.0
2014-Jun-23 12:32N 43°34' E 010°18'0 0.0
2014-Jun-23 11:31N 43°34' E 010°18'1 0.6
2014-Jun-23 10:33N 43°34' E 010°18'7 6.8
2014-Jun-23 09:33N 43°29' E 010°12'1514.8
2014-Jun-23 08:33N 43°19' E 009°57'1616.0
2014-Jun-23 07:33N 43°17' E 009°35'1615.6
2014-Jun-23 06:33N 43°13' E 009°14'1616.3
2014-Jun-23 05:33N 43°04' E 008°56'1716.6
2014-Jun-23 04:33N 42°55' E 008°37'1616.3
2014-Jun-23 03:33N 42°46' E 008°18'1616.3
2014-Jun-23 02:33N 42°37' E 008°00'1616.2
2014-Jun-23 01:33N 42°28' E 007°42'1616.1
2014-Jun-23 00:33N 42°19' E 007°23'1616.0
2014-Jun-22 23:33N 42°10' E 007°05'1615.9
2014-Jun-22 22:33N 42°02' E 006°47'1615.7
2014-Jun-22 21:33N 41°53' E 006°29'1515.4
2014-Jun-22 20:33N 41°44' E 006°13'1414.2
2014-Jun-22 19:33N 41°37' E 005°57'1313.3
2014-Jun-22 18:33N 41°29' E 005°42'1313.3
2014-Jun-22 17:33N 41°22' E 005°27'1413.7
2014-Jun-22 16:33N 41°14' E 005°12'1714.4
2014-Jun-22 15:23N 41°05' E 004°53'1514.0
2014-Jun-22 14:16N 40°56' E 004°36'1114.6
2014-Jun-22 13:32N 40°50' E 004°24'1414.0
2014-Jun-22 12:31N 40°43' E 004°08'1614.3
2014-Jun-22 11:23N 40°33' E 003°51'1214.4
2014-Jun-22 10:31N 40°27' E 003°37'1514.0
2014-Jun-22 09:28N 40°19' E 003°21'1313.6
2014-Jun-22 08:31N 40°11' E 003°07'1414.3
2014-Jun-22 07:33N 40°03' E 002°53'1817.8
2014-Jun-22 06:33N 39°52' E 002°34'1817.0
2014-Jun-22 05:28N 39°42' E 002°14'1516.4
2014-Jun-22 04:33N 39°33' E 001°58'1616.3
2014-Jun-22 03:33N 39°23' E 001°42'1816.2
2014-Jun-22 02:28N 39°13' E 001°23'3316.6
2014-Jun-22 00:27N 38°51' E 000°50'4716.2
2014-Jun-21 21:32N 38°15' E 000°12'1515.6
2014-Jun-21 20:33N 38°03' E 000°00'2316.3
2014-Jun-21 19:09N 37°45' W 000°18'  

Dump ship's entire track history